Terminal Aerodrome Forecast
Issued by NWS

Home | Current Version | Previous Version | Text Only | Print | Product List | Glossary On
Versions: 1 2 3 4 5 6 7 8 9 10 11 12 13
000
FTUS45 KREV 201700
TAFMMH
TAF
KMMH 201720Z 2018/2118 VRB04KT P6SM BKN050 BKN100
     FM202100 27010G20KT P6SM SCT050 BKN100
     FM210300 30007KT P6SM BKN180=

USA.gov is the U.S. government's official web portal to all federal, state and local government web resources and services.